Time;durP1;ratioP1;P1;durP2;ratioP2;P2;SDS_P1;SDS_P2;PMS_P1;PMS_P2;Temp;Humidity;BMP_temperature;BMP_pressure;BME280_temperature;BME280_humidity;BME280_pressure;Samples;Min_cycle;Max_cycle;Signal;HPM_P1;HPM_P2
2022/07/19 00:01:00;;;;;;;2.33;1.30;;;;;;;;;;5030646;28;20184;-85
2022/07/19 00:04:04;;;;;;;4.40;1.57;;;;;;;;;;5037921;28;20191;-86
2022/07/19 00:07:08;;;;;;;3.57;1.60;;;;;;;;;;5039398;28;20223;-86
2022/07/19 00:10:15;;;;;;;3.67;1.60;;;;;;;;;;5050168;28;20192;-86
2022/07/19 00:13:19;;;;;;;3.73;1.43;;;;;;;;;;5049718;28;20187;-86
2022/07/19 00:16:23;;;;;;;5.40;1.63;;;;;;;;;;5038805;28;20219;-86
2022/07/19 00:19:27;;;;;;;2.33;1.60;;;;;;;;;;5041595;28;20195;-85
2022/07/19 00:22:31;;;;;;;2.47;1.17;;;;;;;;;;5044471;28;20195;-86
2022/07/19 00:25:35;;;;;;;4.20;1.80;;;;;;;;;;5038736;28;20215;-86
2022/07/19 00:28:39;;;;;;;2.40;1.80;;;;;;;;;;5048420;28;20172;-86
2022/07/19 00:31:43;;;;;;;4.83;1.70;;;;;;;;;;5039139;28;20196;-85
2022/07/19 00:34:47;;;;;;;2.37;1.50;;;;;;;;;;5041187;28;20176;-86
2022/07/19 00:37:51;;;;;;;4.23;1.90;;;;;;;;;;5018680;28;20172;-85
2022/07/19 00:40:56;;;;;;;4.17;1.70;;;;;;;;;;5024418;28;20192;-85
2022/07/19 00:44:00;;;;;;;4.87;1.40;;;;;;;;;;5060934;28;20191;-85
2022/07/19 00:47:05;;;;;;;4.57;1.60;;;;;;;;;;5060888;28;20219;-86
2022/07/19 00:50:09;;;;;;;3.60;1.57;;;;;;;;;;5053336;28;20514;-85
2022/07/19 00:53:14;;;;;;;4.77;1.73;;;;;;;;;;5056022;28;20522;-85
2022/07/19 00:56:19;;;;;;;2.00;1.53;;;;;;;;;;5049012;28;20704;-85
2022/07/19 00:59:23;;;;;;;2.00;1.53;;;;;;;;;;5041624;28;20535;-85
2022/07/19 01:02:29;;;;;;;4.87;1.70;;;;;;;;;;5052723;28;20195;-85
2022/07/19 01:05:33;;;;;;;7.17;1.33;;;;;;;;;;5041293;28;20215;-85
2022/07/19 01:08:37;;;;;;;4.37;1.57;;;;;;;;;;5043937;28;20192;-85
2022/07/19 01:11:41;;;;;;;4.07;1.50;;;;;;;;;;5055411;28;20187;-85
2022/07/19 01:14:45;;;;;;;2.00;1.50;;;;;;;;;;5064214;28;20199;-85
2022/07/19 01:17:51;;;;;;;4.10;1.47;;;;;;;;;;5051769;28;20223;-86
2022/07/19 01:20:57;;;;;;;4.27;1.63;;;;;;;;;;5038779;28;20199;-85
2022/07/19 01:24:01;;;;;;;2.43;1.60;;;;;;;;;;5040878;28;20531;-85
2022/07/19 01:27:05;;;;;;;4.43;1.40;;;;;;;;;;5041473;28;20214;-85
2022/07/19 01:30:18;;;;;;;4.60;1.50;;;;;;;;;;5064338;28;20195;-86
2022/07/19 01:33:22;;;;;;;2.57;1.60;;;;;;;;;;5055295;28;20642;-85
2022/07/19 01:36:27;;;;;;;2.73;1.33;;;;;;;;;;5043833;28;20709;-85
2022/07/19 01:39:31;;;;;;;2.10;1.27;;;;;;;;;;5032636;28;20187;-85
2022/07/19 01:42:35;;;;;;;4.30;1.50;;;;;;;;;;5040344;28;20191;-85
2022/07/19 01:45:39;;;;;;;2.43;1.27;;;;;;;;;;5040165;28;20211;-85
2022/07/19 01:48:43;;;;;;;2.07;1.60;;;;;;;;;;5063462;28;20175;-85
2022/07/19 01:51:48;;;;;;;5.27;1.50;;;;;;;;;;5063530;28;20191;-85
2022/07/19 01:54:52;;;;;;;3.07;1.80;;;;;;;;;;5032301;28;20204;-85
2022/07/19 01:57:56;;;;;;;2.57;1.60;;;;;;;;;;5032040;28;20220;-86
2022/07/19 02:01:00;;;;;;;3.93;1.43;;;;;;;;;;5031511;28;20520;-85
2022/07/19 02:04:04;;;;;;;2.30;1.60;;;;;;;;;;5059474;28;20191;-85
2022/07/19 02:07:08;;;;;;;3.30;1.30;;;;;;;;;;5062600;28;20227;-85
2022/07/19 02:10:12;;;;;;;3.73;1.70;;;;;;;;;;5031526;28;20200;-85
2022/07/19 02:13:17;;;;;;;2.40;1.33;;;;;;;;;;5029508;28;20191;-85
2022/07/19 02:16:21;;;;;;;3.20;1.47;;;;;;;;;;5062788;28;20223;-85
2022/07/19 02:19:25;;;;;;;3.57;1.50;;;;;;;;;;5039950;28;20179;-85
2022/07/19 02:22:29;;;;;;;4.77;1.90;;;;;;;;;;5033585;28;20192;-85
2022/07/19 02:25:33;;;;;;;3.37;1.80;;;;;;;;;;5036914;28;20211;-85
2022/07/19 02:28:38;;;;;;;3.97;1.57;;;;;;;;;;5039646;28;20180;-85
2022/07/19 02:31:44;;;;;;;4.10;1.70;;;;;;;;;;5062631;28;20179;-85
2022/07/19 02:34:48;;;;;;;4.70;1.80;;;;;;;;;;5019744;28;20208;-85
2022/07/19 02:37:52;;;;;;;5.30;1.50;;;;;;;;;;5019829;28;20208;-85
2022/07/19 02:40:56;;;;;;;2.40;1.90;;;;;;;;;;5031273;28;20184;-86
2022/07/19 02:44:00;;;;;;;3.43;1.97;;;;;;;;;;5056814;28;20191;-85
2022/07/19 02:47:04;;;;;;;2.73;1.80;;;;;;;;;;5031141;28;20212;-85
2022/07/19 02:50:09;;;;;;;2.77;2.00;;;;;;;;;;5031157;28;20180;-85
2022/07/19 02:53:13;;;;;;;3.20;1.77;;;;;;;;;;5027415;28;20191;-85
2022/07/19 02:56:17;;;;;;;5.13;1.87;;;;;;;;;;5039129;28;20215;-85
2022/07/19 02:59:21;;;;;;;1.63;1.50;;;;;;;;;;5039135;28;20175;-85
2022/07/19 03:02:25;;;;;;;3.87;1.70;;;;;;;;;;5031393;28;20183;-85
2022/07/19 03:05:30;;;;;;;3.10;2.13;;;;;;;;;;5071731;22;20223;-86
2022/07/19 03:08:34;;;;;;;4.13;1.70;;;;;;;;;;4980087;28;20205;-86
2022/07/19 03:11:38;;;;;;;4.80;1.90;;;;;;;;;;4990922;28;20193;-86
2022/07/19 03:14:42;;;;;;;1.90;1.80;;;;;;;;;;4979654;28;20193;-86
2022/07/19 03:17:46;;;;;;;3.37;1.83;;;;;;;;;;4971731;28;20206;-86
2022/07/19 03:20:51;;;;;;;4.37;1.90;;;;;;;;;;4971307;28;20543;-86
2022/07/19 03:23:55;;;;;;;2.10;1.57;;;;;;;;;;4982726;28;20660;-86
2022/07/19 03:26:59;;;;;;;3.83;1.77;;;;;;;;;;4982350;28;20209;-86
2022/07/19 03:30:05;;;;;;;3.37;1.70;;;;;;;;;;4971569;28;20182;-86
2022/07/19 03:33:10;;;;;;;4.63;2.10;;;;;;;;;;4982522;28;20525;-86
2022/07/19 03:36:14;;;;;;;3.07;2.00;;;;;;;;;;4992995;28;20218;-86
2022/07/19 03:39:18;;;;;;;2.83;1.67;;;;;;;;;;4971670;28;20182;-86
2022/07/19 03:42:22;;;;;;;5.07;2.30;;;;;;;;;;4981656;28;20198;-87
2022/07/19 03:45:26;;;;;;;1.93;1.50;;;;;;;;;;4982426;28;20186;-88
2022/07/19 03:48:30;;;;;;;2.93;2.00;;;;;;;;;;4982481;28;20194;-89
2022/07/19 03:51:34;;;;;;;2.97;2.00;;;;;;;;;;4971258;28;20533;-89
2022/07/19 03:54:39;;;;;;;2.37;1.67;;;;;;;;;;4958703;28;20186;-89
2022/07/19 03:57:43;;;;;;;3.27;1.73;;;;;;;;;;4960433;28;20301;-89
2022/07/19 04:00:47;;;;;;;2.13;1.93;;;;;;;;;;4982032;28;20202;-89
2022/07/19 04:03:51;;;;;;;2.00;1.80;;;;;;;;;;4971218;28;20649;-89
2022/07/19 04:06:56;;;;;;;14.83;2.77;;;;;;;;;;4970721;28;20229;-90
2022/07/19 04:10:00;;;;;;;4.50;2.10;;;;;;;;;;4982752;28;20186;-86
2022/07/19 04:13:05;;;;;;;9.70;2.23;;;;;;;;;;4982913;28;20197;-86
2022/07/19 04:16:09;;;;;;;4.17;1.77;;;;;;;;;;4983577;28;20218;-86
2022/07/19 04:19:13;;;;;;;4.53;2.20;;;;;;;;;;4972257;28;20190;-86
2022/07/19 04:22:17;;;;;;;5.77;2.13;;;;;;;;;;4982892;28;20526;-86
2022/07/19 04:25:21;;;;;;;3.83;1.70;;;;;;;;;;4975640;28;20182;-87
2022/07/19 04:28:25;;;;;;;4.33;1.87;;;;;;;;;;4975701;28;20174;-87
2022/07/19 04:31:29;;;;;;;9.73;2.23;;;;;;;;;;4985997;28;20636;-87
2022/07/19 04:34:34;;;;;;;5.67;2.10;;;;;;;;;;4975176;28;20182;-87
2022/07/19 04:37:41;;;;;;;2.27;1.70;;;;;;;;;;4975323;28;20221;-87
2022/07/19 04:40:45;;;;;;;4.43;1.90;;;;;;;;;;4975114;28;20186;-87
2022/07/19 04:43:49;;;;;;;4.20;1.80;;;;;;;;;;4974954;28;20198;-86
2022/07/19 04:46:53;;;;;;;2.23;1.80;;;;;;;;;;4975277;28;20221;-87
2022/07/19 04:49:57;;;;;;;2.53;1.57;;;;;;;;;;4985832;28;20201;-86
2022/07/19 04:53:01;;;;;;;3.67;2.10;;;;;;;;;;4974723;28;20202;-87
2022/07/19 04:56:06;;;;;;;3.80;2.07;;;;;;;;;;4974821;28;20221;-86
2022/07/19 04:59:09;;;;;;;3.63;1.97;;;;;;;;;;4974582;28;20197;-86
2022/07/19 05:02:13;;;;;;;7.60;2.20;;;;;;;;;;4974452;28;20205;-87
2022/07/19 05:05:17;;;;;;;8.63;2.40;;;;;;;;;;4985221;28;20202;-86
2022/07/19 05:08:22;;;;;;;2.93;1.87;;;;;;;;;;4974839;28;20514;-86
2022/07/19 05:11:26;;;;;;;4.07;2.20;;;;;;;;;;4974156;28;20186;-86
2022/07/19 05:14:30;;;;;;;7.37;2.53;;;;;;;;;;4973886;28;20202;-86
2022/07/19 05:17:35;;;;;;;7.23;2.87;;;;;;;;;;4984418;28;20557;-87
2022/07/19 05:20:39;;;;;;;6.27;2.60;;;;;;;;;;4966370;28;20206;-87
2022/07/19 05:23:43;;;;;;;7.13;2.60;;;;;;;;;;4984460;28;20205;-86
2022/07/19 05:26:47;;;;;;;7.13;2.50;;;;;;;;;;4995923;28;20222;-86
2022/07/19 05:29:51;;;;;;;4.30;2.20;;;;;;;;;;4973144;28;20194;-86
2022/07/19 05:32:55;;;;;;;8.23;2.73;;;;;;;;;;4985060;28;20179;-86
2022/07/19 05:35:59;;;;;;;3.73;2.17;;;;;;;;;;4983191;28;20218;-87
2022/07/19 05:39:04;;;;;;;2.87;1.90;;;;;;;;;;4973130;28;20209;-87
2022/07/19 05:42:08;;;;;;;6.97;2.43;;;;;;;;;;4983931;28;20242;-87
2022/07/19 05:45:12;;;;;;;5.20;2.20;;;;;;;;;;4984071;28;20190;-87
2022/07/19 05:48:16;;;;;;;3.97;2.40;;;;;;;;;;4972844;28;20190;-86
2022/07/19 05:51:20;;;;;;;5.90;3.03;;;;;;;;;;4995113;28;20186;-86
2022/07/19 05:54:24;;;;;;;3.20;2.17;;;;;;;;;;4983664;28;20533;-86
2022/07/19 05:57:28;;;;;;;4.57;2.23;;;;;;;;;;4984995;28;20225;-84
2022/07/19 06:00:32;;;;;;;4.00;2.60;;;;;;;;;;4985115;28;20182;-84
2022/07/19 06:03:36;;;;;;;6.30;2.57;;;;;;;;;;4985040;28;20208;-84
2022/07/19 06:06:41;;;;;;;4.33;2.27;;;;;;;;;;4974093;28;20696;-84
2022/07/19 06:09:44;;;;;;;4.07;2.23;;;;;;;;;;4985265;28;20186;-84
2022/07/19 06:12:48;;;;;;;3.73;2.00;;;;;;;;;;4976634;28;20183;-84
2022/07/19 06:15:53;;;;;;;7.30;2.83;;;;;;;;;;4970071;28;20550;-85
2022/07/19 06:18:57;;;;;;;2.33;1.90;;;;;;;;;;4973163;28;20210;-85
2022/07/19 06:22:01;;;;;;;11.53;2.60;;;;;;;;;;4964113;28;20179;-87
2022/07/19 06:25:06;;;;;;;3.17;2.03;;;;;;;;;;4976129;28;20179;-85
2022/07/19 06:28:10;;;;;;;4.57;2.23;;;;;;;;;;4980046;28;20649;-85
2022/07/19 06:31:16;;;;;;;14.43;4.03;;;;;;;;;;4972545;28;20542;-86
2022/07/19 06:34:20;;;;;;;3.13;2.20;;;;;;;;;;4972952;28;20189;-86
2022/07/19 06:37:24;;;;;;;4.33;1.87;;;;;;;;;;4960725;28;20222;-86
2022/07/19 06:40:29;;;;;;;23.13;3.87;;;;;;;;;;4972015;28;20522;-86
2022/07/19 06:43:33;;;;;;;3.97;2.03;;;;;;;;;;4969042;28;20638;-85
2022/07/19 06:46:38;;;;;;;9.70;2.40;;;;;;;;;;4971604;28;20214;-86
2022/07/19 06:49:43;;;;;;;2.97;2.00;;;;;;;;;;4982702;28;20194;-87
2022/07/19 06:52:47;;;;;;;3.30;2.10;;;;;;;;;;4961022;28;20194;-86
2022/07/19 06:55:51;;;;;;;5.93;1.87;;;;;;;;;;4983177;28;20699;-86
2022/07/19 06:58:55;;;;;;;3.50;1.70;;;;;;;;;;4971553;28;20206;-86
2022/07/19 07:01:59;;;;;;;3.93;1.87;;;;;;;;;;4982986;28;20190;-86
2022/07/19 07:05:08;;;;;;;2.33;1.63;;;;;;;;;;4982735;28;20202;-86
2022/07/19 07:08:13;;;;;;;3.10;1.83;;;;;;;;;;4982724;28;20186;-86
2022/07/19 07:11:17;;;;;;;4.73;1.80;;;;;;;;;;4971189;28;20199;-86
2022/07/19 07:14:21;;;;;;;3.33;1.80;;;;;;;;;;4972195;28;20190;-86
2022/07/19 07:17:26;;;;;;;15.53;2.43;;;;;;;;;;4971376;28;20218;-86
2022/07/19 07:20:30;;;;;;;3.83;1.93;;;;;;;;;;4971441;28;20183;-86
2022/07/19 07:23:34;;;;;;;4.30;1.77;;;;;;;;;;4982740;28;20188;-85
2022/07/19 07:26:38;;;;;;;2.30;1.57;;;;;;;;;;4971319;28;20228;-85
2022/07/19 07:29:42;;;;;;;2.47;1.63;;;;;;;;;;4971449;28;20188;-86
2022/07/19 07:32:46;;;;;;;6.13;1.70;;;;;;;;;;4983612;28;20187;-82
2022/07/19 07:35:50;;;;;;;3.60;1.60;;;;;;;;;;4973718;28;20221;-82
2022/07/19 07:38:54;;;;;;;5.40;1.77;;;;;;;;;;4961212;28;20212;-86
2022/07/19 07:41:58;;;;;;;2.30;1.60;;;;;;;;;;4952852;28;20187;-86
2022/07/19 07:45:02;;;;;;;3.28;1.30;;;;;;;;;;4979175;28;20201;-85
2022/07/19 07:48:07;;;;;;;1.73;1.20;;;;;;;;;;4971829;28;20185;-86
2022/07/19 07:51:11;;;;;;;2.67;1.30;;;;;;;;;;4960154;28;20195;-87
2022/07/19 07:54:15;;;;;;;3.70;1.58;;;;;;;;;;4971403;28;20182;-90
2022/07/19 07:57:19;;;;;;;2.10;1.52;;;;;;;;;;4993908;28;20214;-86
2022/07/19 08:00:24;;;;;;;5.63;1.25;;;;;;;;;;4974687;28;20665;-84
2022/07/19 08:03:28;;;;;;;2.40;1.25;;;;;;;;;;4978291;28;20225;-85
2022/07/19 08:06:32;;;;;;;5.25;1.40;;;;;;;;;;4992706;28;20235;-85
2022/07/19 08:09:36;;;;;;;2.83;1.40;;;;;;;;;;5006082;28;20540;-85
2022/07/19 08:12:40;;;;;;;2.30;1.15;;;;;;;;;;5017288;28;20182;-84
2022/07/19 08:15:44;;;;;;;3.65;1.63;;;;;;;;;;4993718;28;20221;-85
2022/07/19 08:18:48;;;;;;;4.00;1.17;;;;;;;;;;5016811;28;20231;-85
2022/07/19 08:21:52;;;;;;;2.70;1.20;;;;;;;;;;5004800;28;20655;-85
2022/07/19 08:24:56;;;;;;;10.68;1.40;;;;;;;;;;5005021;28;20204;-85
2022/07/19 08:28:01;;;;;;;3.30;1.40;;;;;;;;;;4996407;28;20197;-85
2022/07/19 08:31:05;;;;;;;2.88;1.38;;;;;;;;;;5005210;28;20194;-85
2022/07/19 08:34:09;;;;;;;1.98;1.20;;;;;;;;;;4974712;28;20186;-87
2022/07/19 08:37:13;;;;;;;2.25;1.10;;;;;;;;;;4996927;28;20222;-87
2022/07/19 08:40:18;;;;;;;2.53;1.10;;;;;;;;;;4985746;28;20179;-87
2022/07/19 08:43:22;;;;;;;1.98;1.15;;;;;;;;;;4974350;28;20186;-87
2022/07/19 08:46:26;;;;;;;3.33;1.40;;;;;;;;;;4984192;28;20217;-88
2022/07/19 08:49:31;;;;;;;2.55;1.10;;;;;;;;;;5005104;28;20170;-87
2022/07/19 08:52:35;;;;;;;4.40;1.50;;;;;;;;;;4974921;28;20182;-86
2022/07/19 08:55:40;;;;;;;2.03;1.30;;;;;;;;;;5013153;28;20198;-86
2022/07/19 08:58:43;;;;;;;1.70;1.13;;;;;;;;;;5004062;28;20209;-86
2022/07/19 09:01:48;;;;;;;2.63;1.10;;;;;;;;;;5003886;28;20194;-85
2022/07/19 09:05:07;;;;;;;3.97;1.33;;;;;;;;;;5003919;28;20186;-85
2022/07/19 09:08:13;;;;;;;3.38;1.42;;;;;;;;;;5072164;22;20233;-86
2022/07/19 09:11:35;;;;;;;3.20;1.30;;;;;;;;;;5032435;28;20188;-86
2022/07/19 09:14:39;;;;;;;1.67;1.23;;;;;;;;;;5033328;28;20189;-86
2022/07/19 09:17:43;;;;;;;3.58;1.40;;;;;;;;;;5031880;28;20212;-86
2022/07/19 09:20:50;;;;;;;1.98;1.38;;;;;;;;;;5026955;28;20192;-86
2022/07/19 09:23:57;;;;;;;4.20;1.40;;;;;;;;;;5023759;28;20197;-86
2022/07/19 09:27:08;;;;;;;1.95;1.30;;;;;;;;;;5017306;28;20694;-86
2022/07/19 09:30:12;;;;;;;4.72;1.67;;;;;;;;;;5032551;28;20176;-86
2022/07/19 09:33:22;;;;;;;4.53;1.45;;;;;;;;;;5035592;28;20191;-86
2022/07/19 09:36:26;;;;;;;5.57;1.40;;;;;;;;;;5051881;28;20674;-86
2022/07/19 09:39:30;;;;;;;3.58;1.50;;;;;;;;;;5033068;28;20208;-86
2022/07/19 09:42:39;;;;;;;3.50;1.40;;;;;;;;;;5020899;28;20172;-85
2022/07/19 09:45:44;;;;;;;1.80;1.50;;;;;;;;;;5042532;28;20192;-86
2022/07/19 09:48:48;;;;;;;3.50;1.20;;;;;;;;;;5031487;28;20189;-86
2022/07/19 09:51:54;;;;;;;3.95;1.40;;;;;;;;;;5054487;28;20795;-86
2022/07/19 09:54:59;;;;;;;5.88;1.35;;;;;;;;;;5020164;28;20180;-86
2022/07/19 09:58:04;;;;;;;3.95;1.55;;;;;;;;;;5031415;28;20588;-86
2022/07/19 10:01:09;;;;;;;6.45;1.52;;;;;;;;;;5038538;28;20184;-86
2022/07/19 10:04:15;;;;;;;2.10;1.30;;;;;;;;;;5042623;28;20192;-86
2022/07/19 10:07:20;;;;;;;4.93;1.48;;;;;;;;;;5031379;28;20220;-86
2022/07/19 10:10:25;;;;;;;2.90;1.50;;;;;;;;;;5020081;28;20181;-86
2022/07/19 10:13:30;;;;;;;2.28;1.40;;;;;;;;;;5031369;28;20181;-85
2022/07/19 10:16:53;;;;;;;6.35;1.42;;;;;;;;;;5019614;28;20220;-84
2022/07/19 10:19:57;;;;;;;3.30;1.60;;;;;;;;;;5030877;28;20556;-85
2022/07/19 10:23:03;;;;;;;7.70;1.50;;;;;;;;;;5019173;28;20188;-85
2022/07/19 10:26:07;;;;;;;2.08;1.45;;;;;;;;;;5020189;28;20181;-85
2022/07/19 10:29:15;;;;;;;3.97;1.50;;;;;;;;;;5019097;28;20643;-85
2022/07/19 10:32:28;;;;;;;2.92;1.40;;;;;;;;;;5031105;28;20177;-85
2022/07/19 10:35:32;;;;;;;5.72;1.52;;;;;;;;;;5042514;28;20184;-85
2022/07/19 10:38:36;;;;;;;4.68;1.67;;;;;;;;;;5019643;28;20196;-85
2022/07/19 10:42:09;;;;;;;2.67;1.50;;;;;;;;;;5019878;28;20177;-85
2022/07/19 10:45:14;;;;;;;1.75;1.50;;;;;;;;;;5019862;28;20507;-85
2022/07/19 10:48:18;;;;;;;4.68;1.65;;;;;;;;;;5042305;28;20208;-85
2022/07/19 10:51:33;;;;;;;3.92;1.80;;;;;;;;;;5042234;28;20176;-86
2022/07/19 10:54:37;;;;;;;1.85;1.63;;;;;;;;;;5042053;28;20517;-85
2022/07/19 10:57:43;;;;;;;2.90;1.60;;;;;;;;;;5019144;28;20238;-85
2022/07/19 11:00:48;;;;;;;3.85;1.60;;;;;;;;;;5042081;28;20203;-85
2022/07/19 11:03:54;;;;;;;6.95;1.80;;;;;;;;;;5042100;28;20173;-85
2022/07/19 11:07:15;;;;;;;4.90;1.90;;;;;;;;;;5041300;28;20220;-85
2022/07/19 11:10:25;;;;;;;5.68;1.50;;;;;;;;;;5030469;28;20169;-85
2022/07/19 11:13:30;;;;;;;2.40;1.70;;;;;;;;;;5019044;28;20181;-85
2022/07/19 11:16:34;;;;;;;1.90;1.75;;;;;;;;;;5030495;28;20570;-85
2022/07/19 11:19:59;;;;;;;3.65;1.83;;;;;;;;;;5030207;28;20224;-85
2022/07/19 11:23:04;;;;;;;3.97;1.70;;;;;;;;;;5041514;28;20181;-85
2022/07/19 11:26:13;;;;;;;7.50;2.75;;;;;;;;;;5019086;28;20185;-85
2022/07/19 11:29:18;;;;;;;2.35;1.70;;;;;;;;;;5018567;28;20193;-86
2022/07/19 11:32:22;;;;;;;2.10;1.88;;;;;;;;;;5041498;28;20169;-85
2022/07/19 11:35:26;;;;;;;3.17;1.85;;;;;;;;;;5041309;28;20184;-85
2022/07/19 11:38:45;;;;;;;2.92;2.00;;;;;;;;;;5053569;28;20184;-85
2022/07/19 11:41:50;;;;;;;24.02;3.75;;;;;;;;;;5018290;28;20205;-85
2022/07/19 11:44:54;;;;;;;27.45;3.40;;;;;;;;;;5041026;28;20191;-85
2022/07/19 11:47:58;;;;;;;3.63;2.20;;;;;;;;;;5018519;28;20224;-85
2022/07/19 11:51:08;;;;;;;2.55;1.98;;;;;;;;;;5041169;28;20176;-85
2022/07/19 11:54:12;;;;;;;4.30;1.70;;;;;;;;;;5041442;28;20181;-85
2022/07/19 11:57:24;;;;;;;4.90;2.00;;;;;;;;;;5029679;28;20219;-85
2022/07/19 12:00:32;;;;;;;3.28;1.80;;;;;;;;;;5029958;28;20213;-85
2022/07/19 12:03:37;;;;;;;4.68;2.22;;;;;;;;;;5053534;28;20172;-85
2022/07/19 12:06:46;;;;;;;14.73;2.92;;;;;;;;;;5040925;28;20228;-85
2022/07/19 12:09:50;;;;;;;4.15;1.70;;;;;;;;;;5018357;28;20185;-85
2022/07/19 12:12:55;;;;;;;4.85;2.47;;;;;;;;;;5029393;28;20196;-85
2022/07/19 12:16:07;;;;;;;3.28;2.00;;;;;;;;;;5041128;28;20509;-85
2022/07/19 12:19:17;;;;;;;2.85;1.73;;;;;;;;;;5040827;28;20184;-85
2022/07/19 12:22:33;;;;;;;4.97;1.70;;;;;;;;;;5040757;28;20177;-85
2022/07/19 12:25:37;;;;;;;5.55;2.00;;;;;;;;;;5041128;28;20184;-85
2022/07/19 12:28:42;;;;;;;3.78;1.75;;;;;;;;;;5018343;28;20192;-85
2022/07/19 12:31:48;;;;;;;2.67;2.03;;;;;;;;;;5018291;28;20180;-85
2022/07/19 12:34:58;;;;;;;4.25;2.85;;;;;;;;;;5018453;28;20176;-85
2022/07/19 12:38:04;;;;;;;2.05;1.73;;;;;;;;;;5018363;28;20224;-85
2022/07/19 12:41:08;;;;;;;3.42;1.90;;;;;;;;;;5018213;28;20205;-85
2022/07/19 12:44:12;;;;;;;3.15;1.60;;;;;;;;;;5030289;28;20181;-85
2022/07/19 12:47:16;;;;;;;2.17;1.80;;;;;;;;;;5021802;28;20216;-85
2022/07/19 12:50:36;;;;;;;7.63;2.00;;;;;;;;;;5044349;28;20173;-85
2022/07/19 12:53:40;;;;;;;3.47;2.30;;;;;;;;;;5021858;28;20185;-85
2022/07/19 12:56:44;;;;;;;3.22;1.70;;;;;;;;;;5044724;28;20212;-85
2022/07/19 12:59:48;;;;;;;2.80;1.75;;;;;;;;;;5021514;28;20212;-85
2022/07/19 13:02:53;;;;;;;5.00;1.55;;;;;;;;;;5044399;28;20180;-85
2022/07/19 13:05:59;;;;;;;3.53;1.58;;;;;;;;;;5032725;28;20181;-85
2022/07/19 13:09:04;;;;;;;4.88;1.85;;;;;;;;;;5021294;28;20173;-85
2022/07/19 13:12:09;;;;;;;3.67;1.90;;;;;;;;;;5044169;28;20180;-85
2022/07/19 13:15:14;;;;;;;6.60;1.75;;;;;;;;;;5032938;28;20523;-85
2022/07/19 13:18:18;;;;;;;4.28;1.80;;;;;;;;;;5020967;28;20219;-85
2022/07/19 13:21:23;;;;;;;1.75;1.50;;;;;;;;;;5043978;28;20201;-85
2022/07/19 13:24:27;;;;;;;2.83;1.75;;;;;;;;;;5043855;28;20188;-85
2022/07/19 13:27:31;;;;;;;3.20;1.80;;;;;;;;;;5032406;28;20212;-85
2022/07/19 13:30:36;;;;;;;4.32;1.70;;;;;;;;;;5032543;28;20659;-85
2022/07/19 13:33:40;;;;;;;3.58;1.75;;;;;;;;;;5031999;28;20193;-85
2022/07/19 13:36:44;;;;;;;3.92;1.67;;;;;;;;;;5020617;28;20220;-86
2022/07/19 13:39:48;;;;;;;2.67;1.75;;;;;;;;;;5021202;28;20220;-85
2022/07/19 13:42:54;;;;;;;4.28;1.98;;;;;;;;;;5043591;28;20176;-85
2022/07/19 13:45:59;;;;;;;3.70;1.70;;;;;;;;;;5043302;28;20177;-85
2022/07/19 13:49:03;;;;;;;4.05;2.10;;;;;;;;;;5032020;28;20180;-85
2022/07/19 13:52:07;;;;;;;2.40;1.85;;;;;;;;;;5020160;28;20192;-85
2022/07/19 13:55:11;;;;;;;2.70;1.60;;;;;;;;;;5020020;28;20180;-85
2022/07/19 13:58:15;;;;;;;6.68;1.95;;;;;;;;;;5020353;28;20216;-85
2022/07/19 14:01:19;;;;;;;3.47;1.95;;;;;;;;;;5031643;28;20208;-85
2022/07/19 14:04:23;;;;;;;4.45;1.83;;;;;;;;;;5031637;28;20518;-85
2022/07/19 14:07:27;;;;;;;6.55;2.08;;;;;;;;;;5031454;28;20567;-85
2022/07/19 14:10:31;;;;;;;3.17;2.25;;;;;;;;;;5043134;28;20180;-85
2022/07/19 14:13:35;;;;;;;6.53;2.35;;;;;;;;;;5023157;28;20644;-85
2022/07/19 14:16:39;;;;;;;3.58;1.90;;;;;;;;;;5057328;28;20212;-84
2022/07/19 14:19:43;;;;;;;3.72;2.17;;;;;;;;;;5043813;28;20632;-85
2022/07/19 14:22:48;;;;;;;5.88;2.45;;;;;;;;;;5020462;28;20188;-85
2022/07/19 14:25:52;;;;;;;5.82;2.20;;;;;;;;;;5042895;28;20177;-85
2022/07/19 14:28:56;;;;;;;5.07;2.22;;;;;;;;;;5043815;28;20181;-85
2022/07/19 14:32:00;;;;;;;3.90;2.50;;;;;;;;;;5043031;28;20196;-84
2022/07/19 14:35:04;;;;;;;4.78;2.00;;;;;;;;;;5021374;28;20180;-84
2022/07/19 14:38:09;;;;;;;4.43;2.05;;;;;;;;;;5032112;28;20216;-84
2022/07/19 14:41:13;;;;;;;4.47;2.17;;;;;;;;;;5045222;28;20204;-85
2022/07/19 14:44:17;;;;;;;4.30;2.30;;;;;;;;;;5019907;28;20181;-85
2022/07/19 14:47:21;;;;;;;6.40;2.20;;;;;;;;;;5021130;28;20216;-85
2022/07/19 14:50:25;;;;;;;4.05;2.25;;;;;;;;;;5021272;28;20611;-85
2022/07/19 14:53:29;;;;;;;3.25;2.33;;;;;;;;;;5042915;28;20180;-85
2022/07/19 14:56:33;;;;;;;4.57;1.85;;;;;;;;;;5042226;28;20216;-85
2022/07/19 14:59:38;;;;;;;6.25;2.33;;;;;;;;;;5041875;28;20180;-85
2022/07/19 15:02:41;;;;;;;6.65;2.20;;;;;;;;;;5030585;28;20189;-85
2022/07/19 15:05:46;;;;;;;3.90;2.55;;;;;;;;;;5019290;28;20188;-85
2022/07/19 15:08:50;;;;;;;5.57;2.28;;;;;;;;;;5060940;22;20236;-85
2022/07/19 15:11:54;;;;;;;4.63;2.42;;;;;;;;;;5025326;28;20173;-86
2022/07/19 15:14:58;;;;;;;6.18;2.20;;;;;;;;;;5024165;28;20185;-86
2022/07/19 15:18:03;;;;;;;2.53;2.15;;;;;;;;;;5035537;28;20221;-86
2022/07/19 15:21:07;;;;;;;4.68;2.30;;;;;;;;;;5001544;28;20217;-86
2022/07/19 15:24:11;;;;;;;4.95;2.20;;;;;;;;;;5023863;28;20181;-86
2022/07/19 15:27:15;;;;;;;5.50;2.55;;;;;;;;;;5012212;28;20221;-86
2022/07/19 15:30:20;;;;;;;5.28;2.50;;;;;;;;;;5023038;28;20197;-86
2022/07/19 15:33:24;;;;;;;5.85;2.40;;;;;;;;;;5012181;28;20181;-86
2022/07/19 15:36:28;;;;;;;4.57;2.47;;;;;;;;;;5012638;28;20177;-86
2022/07/19 15:39:32;;;;;;;6.65;2.50;;;;;;;;;;5011331;28;20177;-86
2022/07/19 15:42:50;;;;;;;4.22;2.20;;;;;;;;;;5022688;28;20181;-86
2022/07/19 15:45:54;;;;;;;5.70;2.50;;;;;;;;;;5011262;28;20193;-86
2022/07/19 15:49:00;;;;;;;4.90;2.20;;;;;;;;;;5010775;28;20212;-86
2022/07/19 15:52:04;;;;;;;2.53;2.30;;;;;;;;;;5010929;28;20180;-86
2022/07/19 15:55:09;;;;;;;5.00;2.67;;;;;;;;;;5011541;28;20185;-86
2022/07/19 15:58:13;;;;;;;6.15;2.75;;;;;;;;;;5010566;28;20603;-86
2022/07/19 16:01:18;;;;;;;4.63;2.30;;;;;;;;;;5010883;28;20205;-85
2022/07/19 16:04:23;;;;;;;5.35;2.67;;;;;;;;;;5033586;28;20177;-86
2022/07/19 16:07:27;;;;;;;8.30;2.90;;;;;;;;;;5010240;28;20221;-85
2022/07/19 16:10:31;;;;;;;3.75;2.60;;;;;;;;;;5022216;28;20624;-85
2022/07/19 16:13:35;;;;;;;5.50;2.83;;;;;;;;;;5022091;28;20184;-85
2022/07/19 16:16:39;;;;;;;9.57;2.92;;;;;;;;;;5010628;28;20173;-85
2022/07/19 16:19:43;;;;;;;6.20;2.70;;;;;;;;;;5024270;28;20533;-85
2022/07/19 16:22:47;;;;;;;6.45;3.05;;;;;;;;;;5014624;28;20180;-85
2022/07/19 16:25:51;;;;;;;5.80;2.80;;;;;;;;;;5014263;28;20548;-85
2022/07/19 16:28:55;;;;;;;6.15;2.70;;;;;;;;;;5014071;28;20699;-85
2022/07/19 16:32:00;;;;;;;6.30;2.70;;;;;;;;;;5025472;28;20181;-85
2022/07/19 16:35:05;;;;;;;5.50;2.67;;;;;;;;;;5025857;28;20177;-85
2022/07/19 16:38:10;;;;;;;3.67;2.72;;;;;;;;;;5025685;28;20216;-85
2022/07/19 16:41:14;;;;;;;4.55;2.50;;;;;;;;;;5014293;28;20217;-85
2022/07/19 16:44:18;;;;;;;3.63;2.78;;;;;;;;;;5014275;28;20196;-85
2022/07/19 16:47:23;;;;;;;6.70;2.90;;;;;;;;;;5014359;28;20219;-85
2022/07/19 16:50:27;;;;;;;5.18;2.85;;;;;;;;;;5014549;28;20177;-85
2022/07/19 16:53:32;;;;;;;3.75;2.78;;;;;;;;;;5003093;28;20181;-85
2022/07/19 16:56:37;;;;;;;8.65;3.28;;;;;;;;;;5014116;28;20179;-85
2022/07/19 16:59:40;;;;;;;4.18;2.75;;;;;;;;;;5025303;28;20199;-85
2022/07/19 17:02:45;;;;;;;4.45;3.20;;;;;;;;;;5014000;28;20185;-85
2022/07/19 17:05:49;;;;;;;3.63;2.97;;;;;;;;;;5025239;28;20204;-85
2022/07/19 17:08:54;;;;;;;5.70;2.67;;;;;;;;;;5024810;28;20564;-85
2022/07/19 17:11:59;;;;;;;5.95;3.50;;;;;;;;;;5025409;28;20198;-85
2022/07/19 17:15:04;;;;;;;6.00;2.80;;;;;;;;;;5002772;28;20196;-85
2022/07/19 17:18:08;;;;;;;29.83;4.47;;;;;;;;;;5013387;28;20220;-86
2022/07/19 17:21:12;;;;;;;80.07;8.13;;;;;;;;;;5016699;28;20539;-85
2022/07/19 17:24:16;;;;;;;4.80;3.15;;;;;;;;;;5017382;28;20182;-85
2022/07/19 17:27:20;;;;;;;6.80;3.33;;;;;;;;;;5014136;28;20559;-86
2022/07/19 17:30:24;;;;;;;3.85;2.90;;;;;;;;;;5013102;28;20185;-85
2022/07/19 17:33:28;;;;;;;6.38;3.10;;;;;;;;;;5024406;28;20188;-85
2022/07/19 17:36:33;;;;;;;5.10;3.10;;;;;;;;;;5013238;28;20180;-84
2022/07/19 17:39:37;;;;;;;7.63;2.72;;;;;;;;;;5024924;28;20182;-84
2022/07/19 17:42:41;;;;;;;5.85;3.28;;;;;;;;;;5013190;28;20217;-85
2022/07/19 17:45:47;;;;;;;6.97;2.78;;;;;;;;;;5013294;28;20633;-85
2022/07/19 17:48:51;;;;;;;5.10;2.80;;;;;;;;;;5012728;28;20220;-85
2022/07/19 17:51:55;;;;;;;8.48;3.25;;;;;;;;;;5012982;28;20180;-85
2022/07/19 17:55:00;;;;;;;5.57;3.20;;;;;;;;;;5012878;28;20187;-85
2022/07/19 17:58:05;;;;;;;6.70;2.92;;;;;;;;;;5012838;28;20218;-85
2022/07/19 18:01:09;;;;;;;13.30;3.40;;;;;;;;;;5012560;28;20207;-85
2022/07/19 18:04:17;;;;;;;8.55;3.38;;;;;;;;;;5023583;28;20184;-85
2022/07/19 18:07:22;;;;;;;10.73;3.22;;;;;;;;;;5001822;28;20570;-85
2022/07/19 18:10:27;;;;;;;3.22;2.47;;;;;;;;;;5024076;28;20193;-85
2022/07/19 18:13:31;;;;;;;6.32;2.70;;;;;;;;;;5013554;28;20178;-85
2022/07/19 18:16:35;;;;;;;4.18;2.70;;;;;;;;;;5014434;28;20186;-84
2022/07/19 18:19:39;;;;;;;17.38;3.63;;;;;;;;;;5013758;28;20625;-84
2022/07/19 18:22:44;;;;;;;5.03;2.80;;;;;;;;;;5024392;28;20207;-85
2022/07/19 18:25:48;;;;;;;7.57;2.50;;;;;;;;;;5024446;28;20622;-85
2022/07/19 18:28:52;;;;;;;5.50;2.45;;;;;;;;;;5023461;28;20215;-85